Time;durP1;ratioP1;P1;durP2;ratioP2;P2;SDS_P1;SDS_P2;PMS_P1;PMS_P2;Temp;Humidity;BMP_temperature;BMP_pressure;BME280_temperature;BME280_humidity;BME280_pressure;Samples;Min_cycle;Max_cycle;Signal;HPM_P1;HPM_P2
2022/11/29 00:00:15;;;;;;;;;;;;;;;30.38;20.19;101005.00;4977501;28;1106;-20
2022/11/29 00:02:40;;;;;;;;;;;;;;;29.85;20.37;101006.25;4977829;28;1208;-20
2022/11/29 00:05:06;;;;;;;;;;;;;;;29.60;20.65;101003.94;4977783;28;1106;-20
2022/11/29 00:07:31;;;;;;;;;;;;;;;29.99;20.53;101012.63;4977209;28;1138;-20
2022/11/29 00:09:56;;;;;;;;;;;;;;;29.98;20.76;101013.66;4977641;28;1188;-20
2022/11/29 00:12:21;;;;;;;;;;;;;;;30.01;20.56;101020.56;4976972;28;1153;-20
2022/11/29 00:14:47;;;;;;;;;;;;;;;30.05;20.50;101024.56;4977351;28;1906;-20
2022/11/29 00:17:12;;;;;;;;;;;;;;;30.13;20.36;101018.16;4977427;28;1188;-20
2022/11/29 00:19:37;;;;;;;;;;;;;;;30.16;20.44;101020.47;4977383;28;1095;-20
2022/11/29 00:22:03;;;;;;;;;;;;;;;30.26;20.33;101026.41;4977142;28;1835;-20
2022/11/29 00:24:30;;;;;;;;;;;;;;;30.27;20.27;101033.53;4976928;28;1259;-20
2022/11/29 00:26:55;;;;;;;;;;;;;;;30.33;20.21;101040.03;4977046;28;1098;-20
2022/11/29 00:29:21;;;;;;;;;;;;;;;30.36;20.24;101045.09;4977207;28;1169;-20
2022/11/29 00:31:46;;;;;;;;;;;;;;;30.39;20.05;101054.69;4959746;28;1145;-20
2022/11/29 00:34:11;;;;;;;;;;;;;;;30.41;20.12;101053.44;4976730;28;1166;-20
2022/11/29 00:36:37;;;;;;;;;;;;;;;30.42;20.27;101040.72;4977226;28;1963;-20
2022/11/29 00:39:02;;;;;;;;;;;;;;;30.47;20.09;101038.25;4976831;28;1102;-20
2022/11/29 00:41:28;;;;;;;;;;;;;;;30.09;20.14;101034.00;4977291;28;1158;-20
2022/11/29 00:43:53;;;;;;;;;;;;;;;29.70;20.82;101034.28;4976699;28;1169;-20
2022/11/29 00:46:18;;;;;;;;;;;;;;;29.91;20.54;101034.47;4980175;28;1086;-20
2022/11/29 00:48:44;;;;;;;;;;;;;;;30.31;20.05;101036.69;4987879;28;1133;-20
2022/11/29 00:51:09;;;;;;;;;;;;;;;30.32;20.01;101041.06;4976624;28;1122;-20
2022/11/29 00:53:34;;;;;;;;;;;;;;;30.26;20.28;101047.28;4976940;28;2683;-20
2022/11/29 00:56:00;;;;;;;;;;;;;;;30.31;20.31;101050.25;4976772;28;1890;-20
2022/11/29 00:58:25;;;;;;;;;;;;;;;30.34;20.29;101040.88;4979429;28;1147;-20
2022/11/29 01:00:51;;;;;;;;;;;;;;;30.42;19.98;101036.13;4980757;28;1130;-20
2022/11/29 01:03:16;;;;;;;;;;;;;;;30.07;20.33;101044.19;4980506;28;1197;-20
2022/11/29 01:05:42;;;;;;;;;;;;;;;29.73;21.02;101038.47;4980484;28;1134;-20
2022/11/29 01:08:07;;;;;;;;;;;;;;;29.99;20.70;101044.34;4980591;28;1134;-20
2022/11/29 01:10:33;;;;;;;;;;;;;;;30.10;20.55;101038.38;4965724;28;1197;-20
2022/11/29 01:12:58;;;;;;;;;;;;;;;30.04;20.67;101041.88;4991657;28;1097;-20
2022/11/29 01:15:23;;;;;;;;;;;;;;;30.10;20.59;101037.53;4980878;28;1952;-21
2022/11/29 01:17:49;;;;;;;;;;;;;;;30.17;20.60;101030.28;4980408;28;1120;-20
2022/11/29 01:20:14;;;;;;;;;;;;;;;30.18;20.59;101019.22;4979810;28;1287;-20
2022/11/29 01:22:39;;;;;;;;;;;;;;;30.31;20.33;101017.69;4980350;28;1807;-20
2022/11/29 01:25:05;;;;;;;;;;;;;;;30.35;20.37;101008.09;4979814;28;1269;-20
2022/11/29 01:27:32;;;;;;;;;;;;;;;30.43;20.20;101004.38;4962886;28;1154;-20
2022/11/29 01:29:57;;;;;;;;;;;;;;;30.42;20.27;101003.56;4980903;28;1121;-20
2022/11/29 01:32:22;;;;;;;;;;;;;;;30.42;20.13;100989.16;4979969;28;1102;-20
2022/11/29 01:34:48;;;;;;;;;;;;;;;30.52;19.88;100995.06;4980195;28;1906;-20
2022/11/29 01:37:13;;;;;;;;;;;;;;;30.51;19.95;100989.84;4980053;28;1142;-20
2022/11/29 01:39:38;;;;;;;;;;;;;;;30.34;20.10;100990.16;4980029;28;1134;-20
2022/11/29 01:42:03;;;;;;;;;;;;;;;29.78;20.83;100991.81;4980047;28;1145;-20
2022/11/29 01:44:29;;;;;;;;;;;;;;;29.59;21.15;100988.72;4980028;28;1107;-20
2022/11/29 01:46:54;;;;;;;;;;;;;;;29.96;20.54;100982.34;4980114;28;1193;-20
2022/11/29 01:49:22;;;;;;;;;;;;;;;30.09;20.53;100992.44;4962522;28;1123;-20
2022/11/29 01:52:17;;;;;;;;;;;;;;;30.22;20.41;100986.31;4979514;28;1801;-20
2022/11/29 01:54:44;;;;;;;;;;;;;;;30.29;20.46;100965.50;4956072;28;1879;-20
2022/11/29 01:57:09;;;;;;;;;;;;;;;30.38;20.21;100977.84;4961802;28;1138;-20
2022/11/29 01:59:35;;;;;;;;;;;;;;;30.38;20.09;100971.59;4980158;28;1118;-20
2022/11/29 02:02:09;;;;;;;;;;;;;;;30.50;20.02;100974.56;4979641;28;1201;-20
2022/11/29 02:04:34;;;;;;;;;;;;;;;30.55;20.12;100964.78;4963059;28;1170;-20
2022/11/29 02:06:59;;;;;;;;;;;;;;;30.51;20.00;100965.41;4979407;28;1209;-21
2022/11/29 02:09:25;;;;;;;;;;;;;;;30.53;19.95;100958.72;4978293;28;839;-20
2022/11/29 02:11:50;;;;;;;;;;;;;;;30.49;19.95;100957.47;4979364;28;1145;-20
2022/11/29 02:14:34;;;;;;;;;;;;;;;30.13;20.08;100950.34;4979446;28;1228;-20
2022/11/29 02:17:06;;;;;;;;;;;;;;;29.58;20.87;100957.19;4979762;28;1981;-20
2022/11/29 02:19:51;;;;;;;;;;;;;;;30.01;20.57;100952.75;4961928;28;1102;-20
2022/11/29 02:22:31;;;;;;;;;;;;;;;30.12;20.56;100965.78;4978969;28;2312;-20
2022/11/29 02:25:02;;;;;;;;;;;;;;;30.17;20.51;100979.59;4978928;28;1157;-20
2022/11/29 02:27:46;;;;;;;;;;;;;;;30.24;20.34;100984.25;4979369;28;1142;-20
2022/11/29 02:30:14;;;;;;;;;;;;;;;30.32;20.56;100989.50;4979050;28;1157;-20
2022/11/29 02:32:58;;;;;;;;;;;;;;;30.28;20.34;100989.06;4961777;28;1131;-20
2022/11/29 02:35:23;;;;;;;;;;;;;;;30.43;20.21;100990.81;4978776;28;1914;-20
2022/11/29 02:38:00;;;;;;;;;;;;;;;30.46;20.21;100984.16;4978685;28;1181;-20
2022/11/29 02:40:44;;;;;;;;;;;;;;;30.46;20.20;100987.72;4979056;28;1074;-20
2022/11/29 02:43:30;;;;;;;;;;;;;;;30.53;20.14;100976.91;4978943;28;1213;-20
2022/11/29 02:45:58;;;;;;;;;;;;;;;30.64;19.97;100975.47;4977964;28;1508;-20
2022/11/29 02:48:42;;;;;;;;;;;;;;;30.63;19.99;100988.22;4965787;28;1075;-20
2022/11/29 02:51:11;;;;;;;;;;;;;;;29.94;20.70;100980.69;4978791;28;1168;-20
2022/11/29 02:53:45;;;;;;;;;;;;;;;29.78;20.80;100984.50;4961588;28;2538;-20
2022/11/29 02:56:12;;;;;;;;;;;;;;;30.28;20.37;100985.53;4978301;28;1894;-21
2022/11/29 02:58:47;;;;;;;;;;;;;;;30.56;20.02;100992.78;4961148;28;940;-20
2022/11/29 03:01:24;;;;;;;;;;;;;;;30.40;20.41;101000.22;4978251;28;1141;-20
2022/11/29 03:03:52;;;;;;;;;;;;;;;30.36;20.39;101001.66;4966188;28;1110;-20
2022/11/29 03:06:24;;;;;;;;;;;;;;;30.39;20.47;100998.53;4961313;28;1138;-20
2022/11/29 03:09:15;;;;;;;;;;;;;;;30.43;20.21;100998.94;4975154;28;1111;-20
2022/11/29 03:11:46;;;;;;;;;;;;;;;29.93;20.51;100997.97;4953795;28;1127;-20
2022/11/29 03:14:18;;;;;;;;;;;;;;;29.85;20.67;100992.69;4978436;28;1114;-20
2022/11/29 03:16:57;;;;;;;;;;;;;;;30.00;20.66;101000.72;4961066;28;1907;-20
2022/11/29 03:19:38;;;;;;;;;;;;;;;30.31;20.23;100994.09;4960879;28;1407;-20
2022/11/29 03:22:06;;;;;;;;;;;;;;;30.32;20.27;100986.78;4976886;28;2387;-20
2022/11/29 03:24:35;;;;;;;;;;;;;;;30.35;20.34;100980.97;4978126;28;1293;-20
2022/11/29 03:27:02;;;;;;;;;;;;;;;30.32;20.46;100978.66;4978486;28;1122;-20
2022/11/29 03:29:35;;;;;;;;;;;;;;;30.41;20.35;100977.44;4960862;28;1221;-20
2022/11/29 03:32:11;;;;;;;;;;;;;;;30.45;20.13;100972.47;4960644;28;1217;-20
2022/11/29 03:34:52;;;;;;;;;;;;;;;29.87;20.75;100966.22;4960658;28;1237;-20
2022/11/29 03:37:19;;;;;;;;;;;;;;;29.69;20.96;100978.41;4977810;28;1205;-20
2022/11/29 03:39:44;;;;;;;;;;;;;;;29.93;20.73;100984.41;4978021;28;1185;-20
2022/11/29 03:42:10;;;;;;;;;;;;;;;30.11;20.63;100985.81;4977747;28;1241;-20
2022/11/29 03:44:40;;;;;;;;;;;;;;;30.29;20.35;100985.34;4977982;28;1118;-21
2022/11/29 03:47:07;;;;;;;;;;;;;;;30.34;20.51;100975.75;4960265;28;952;-20
2022/11/29 03:49:41;;;;;;;;;;;;;;;30.33;20.26;100980.31;4960042;28;1151;-20
2022/11/29 03:52:25;;;;;;;;;;;;;;;30.37;20.28;100991.63;4977601;28;2276;-20
2022/11/29 03:55:26;;;;;;;;;;;;;;;30.37;20.31;100997.03;4977508;28;1894;-20
2022/11/29 03:58:09;;;;;;;;;;;;;;;29.86;20.75;101005.22;4898795;29;1438;-20
2022/11/29 04:00:46;;;;;;;;;;;;;;;29.78;20.79;101003.47;4970465;28;1110;-20
2022/11/29 04:03:30;;;;;;;;;;;;;;;30.01;20.77;101004.28;4978107;28;1188;-20
2022/11/29 04:05:58;;;;;;;;;;;;;;;30.12;20.70;101006.47;4977585;28;1205;-20
2022/11/29 04:08:27;;;;;;;;;;;;;;;30.17;20.66;101008.56;4977571;28;1240;-20
2022/11/29 04:11:10;;;;;;;;;;;;;;;30.18;20.60;101019.22;4976749;28;1196;-20
2022/11/29 04:13:54;;;;;;;;;;;;;;;30.33;20.46;101025.63;4977407;28;1110;-20
2022/11/29 04:16:30;;;;;;;;;;;;;;;30.41;20.38;101020.88;4965512;28;1878;-20
2022/11/29 04:18:55;;;;;;;;;;;;;;;30.47;20.35;101021.97;4977262;28;1560;-20
2022/11/29 04:21:30;;;;;;;;;;;;;;;30.49;20.35;101035.34;4977383;28;1126;-20
2022/11/29 04:24:11;;;;;;;;;;;;;;;30.53;20.28;101042.06;4976602;28;2523;-20
2022/11/29 04:26:46;;;;;;;;;;;;;;;30.51;20.29;101041.41;4959638;28;1296;-20
2022/11/29 04:29:14;;;;;;;;;;;;;;;30.28;20.40;101043.34;4977350;28;1146;-20
2022/11/29 04:31:58;;;;;;;;;;;;;;;29.80;21.28;101033.09;4959755;28;1158;-20
2022/11/29 04:34:42;;;;;;;;;;;;;;;29.52;21.50;101034.69;4980600;28;1229;-20
2022/11/29 04:37:25;;;;;;;;;;;;;;;29.31;21.80;101025.50;4980789;28;1964;-20
2022/11/29 04:40:11;;;;;;;;;;;;;;;29.25;21.65;101023.56;4980641;28;1221;-20
2022/11/29 04:42:45;;;;;;;;;;;;;;;28.68;20.75;101036.78;4940797;28;1589;-19
2022/11/29 04:45:29;;;;;;;;;;;;;;;27.51;21.06;101026.91;4968281;28;1106;-19
2022/11/29 04:48:12;;;;;;;;;;;;;;;27.70;21.52;101022.94;4980884;28;889;-19
2022/11/29 04:51:13;;;;;;;;;;;;;;;27.66;21.21;101024.28;4963582;28;1213;-19
2022/11/29 04:54:05;;;;;;;;;;;;;;;27.83;21.17;101019.63;4903760;29;2478;-19
2022/11/29 04:56:33;;;;;;;;;;;;;;;27.70;21.12;101001.34;4974603;28;1915;-19
2022/11/29 04:59:01;;;;;;;;;;;;;;;27.65;21.36;101030.72;4963149;28;1050;-19
2022/11/29 05:01:47;;;;;;;;;;;;;;;27.60;21.53;101004.25;4987598;28;1238;-19
2022/11/29 05:04:18;;;;;;;;;;;;;;;26.02;21.71;101015.59;4953075;28;1099;-20
2022/11/29 05:06:59;;;;;;;;;;;;;;;25.03;21.93;101011.66;4963212;28;1174;-19
2022/11/29 05:09:24;;;;;;;;;;;;;;;24.27;22.80;101006.88;4968391;28;1079;-20
2022/11/29 05:11:49;;;;;;;;;;;;;;;24.18;23.00;100997.91;4979906;28;925;-19
2022/11/29 05:14:33;;;;;;;;;;;;;;;24.01;22.92;101003.13;4980266;28;1109;-19
2022/11/29 05:17:07;;;;;;;;;;;;;;;24.04;23.01;101013.56;4980673;28;1969;-18
2022/11/29 05:19:48;;;;;;;;;;;;;;;24.32;22.72;101007.25;4979801;28;1031;-18
2022/11/29 05:22:25;;;;;;;;;;;;;;;24.14;22.73;101001.88;4980132;28;2299;-18
2022/11/29 05:24:53;;;;;;;;;;;;;;;24.06;22.95;101019.63;4962300;28;1119;-19
2022/11/29 05:27:24;;;;;;;;;;;;;;;24.02;23.07;101020.09;4980146;28;1354;-19
2022/11/29 05:30:01;;;;;;;;;;;;;;;23.14;24.42;101020.53;4963032;28;953;-19
2022/11/29 05:32:33;;;;;;;;;;;;;;;23.48;23.86;101032.53;4980386;28;1173;-19
2022/11/29 05:35:04;;;;;;;;;;;;;;;23.81;23.44;101021.25;4979717;28;1915;-19
2022/11/29 05:37:30;;;;;;;;;;;;;;;22.99;24.28;101029.09;4980355;28;1205;-19
2022/11/29 05:40:14;;;;;;;;;;;;;;;23.65;23.98;101025.50;4980161;28;1133;-19
2022/11/29 05:42:57;;;;;;;;;;;;;;;23.63;23.76;101018.56;4980113;28;1121;-18
2022/11/29 05:45:24;;;;;;;;;;;;;;;23.32;24.15;101028.63;4978755;28;1181;-19
2022/11/29 05:47:58;;;;;;;;;;;;;;;24.12;23.84;101044.19;4962050;28;1330;-20
2022/11/29 05:50:44;;;;;;;;;;;;;;;24.49;24.21;101048.53;4979914;28;1141;-19
2022/11/29 05:53:16;;;;;;;;;;;;;;;24.61;24.06;101051.78;4979808;28;2366;-19
2022/11/29 05:55:50;;;;;;;;;;;;;;;24.66;24.27;101052.16;4979664;28;1898;-19
2022/11/29 05:58:21;;;;;;;;;;;;;;;24.72;24.03;101052.53;4979614;28;1126;-19
2022/11/29 06:00:47;;;;;;;;;;;;;;;24.79;24.07;101046.34;4962615;28;1106;-19
2022/11/29 06:03:13;;;;;;;;;;;;;;;24.79;24.53;101051.72;4979917;28;1130;-19
2022/11/29 06:05:45;;;;;;;;;;;;;;;24.77;24.42;101050.22;4979747;28;1149;-19
2022/11/29 06:08:16;;;;;;;;;;;;;;;25.09;24.67;101037.94;4978834;28;1106;-19
2022/11/29 06:10:55;;;;;;;;;;;;;;;25.15;24.76;101036.44;4979430;28;1138;-19
2022/11/29 06:13:25;;;;;;;;;;;;;;;25.21;24.54;101035.78;4979811;28;1169;-19
2022/11/29 06:15:56;;;;;;;;;;;;;;;26.21;23.38;101054.00;4979403;28;1902;-19
2022/11/29 06:18:28;;;;;;;;;;;;;;;26.57;22.99;101058.19;4978364;28;1074;-19
2022/11/29 06:21:01;;;;;;;;;;;;;;;26.33;22.97;101062.59;4973634;28;1311;-19
2022/11/29 06:23:29;;;;;;;;;;;;;;;25.62;24.07;101061.16;4961496;28;2689;-19
2022/11/29 06:25:56;;;;;;;;;;;;;;;25.77;24.03;101067.63;4978264;28;1211;-19
2022/11/29 06:28:40;;;;;;;;;;;;;;;26.42;22.99;101064.28;4978936;28;1079;-19
2022/11/29 06:31:15;;;;;;;;;;;;;;;26.31;23.51;101078.09;4979119;28;1197;-19
2022/11/29 06:33:40;;;;;;;;;;;;;;;25.88;23.88;101069.16;4961741;28;1431;-19
2022/11/29 06:36:18;;;;;;;;;;;;;;;25.08;25.21;101060.47;4978260;28;1915;-19
2022/11/29 06:38:43;;;;;;;;;;;;;;;25.22;25.16;101071.66;4978929;28;1158;-19
2022/11/29 06:41:12;;;;;;;;;;;;;;;26.02;24.17;101069.50;4978832;28;1208;-19
2022/11/29 06:43:37;;;;;;;;;;;;;;;26.05;23.88;101071.84;4961961;28;1146;-19
2022/11/29 06:46:23;;;;;;;;;;;;;;;25.79;24.17;101075.53;4961533;28;1122;-19
2022/11/29 06:48:50;;;;;;;;;;;;;;;25.31;24.54;101076.03;4977881;28;1370;-19
2022/11/29 06:51:21;;;;;;;;;;;;;;;26.05;24.10;101066.47;4978521;28;1185;-19
2022/11/29 06:53:46;;;;;;;;;;;;;;;26.49;23.09;101089.53;4961472;28;2514;-19
2022/11/29 06:56:18;;;;;;;;;;;;;;;26.25;23.01;101077.75;4978375;28;1965;-19
2022/11/29 06:59:03;;;;;;;;;;;;;;;25.21;24.42;101070.78;4978340;28;1201;-19
2022/11/29 07:01:31;;;;;;;;;;;;;;;25.68;24.20;101072.16;4960867;28;1174;-19
2022/11/29 07:03:59;;;;;;;;;;;;;;;26.45;23.19;101080.13;4978415;28;1042;-19
2022/11/29 07:06:26;;;;;;;;;;;;;;;26.63;22.89;101084.47;4978565;28;1232;-19
2022/11/29 07:08:52;;;;;;;;;;;;;;;25.80;23.74;101079.91;4978630;28;1161;-19
2022/11/29 07:11:18;;;;;;;;;;;;;;;25.07;24.76;101091.09;4978125;28;1165;-18
2022/11/29 07:13:43;;;;;;;;;;;;;;;25.90;23.72;101091.38;4978858;28;1106;-19
2022/11/29 07:16:24;;;;;;;;;;;;;;;26.50;23.01;101087.69;4978640;28;1961;-19
2022/11/29 07:18:49;;;;;;;;;;;;;;;26.55;23.02;101071.00;4978338;28;1054;-19
2022/11/29 07:21:17;;;;;;;;;;;;;;;25.55;24.20;101075.28;4978187;28;1220;-19
2022/11/29 07:23:42;;;;;;;;;;;;;;;25.05;24.88;101082.34;4977607;28;2500;-19
2022/11/29 07:26:17;;;;;;;;;;;;;;;26.04;23.53;101081.78;4978212;28;1181;-19
2022/11/29 07:28:52;;;;;;;;;;;;;;;26.61;22.97;101079.25;4978262;28;1134;-19
2022/11/29 07:31:30;;;;;;;;;;;;;;;25.98;23.23;101089.69;4961116;28;1209;-19
2022/11/29 07:34:01;;;;;;;;;;;;;;;24.95;24.23;101093.22;4960795;28;1150;-19
2022/11/29 07:36:45;;;;;;;;;;;;;;;25.82;23.96;101093.22;4977487;28;1977;-19
2022/11/29 07:39:23;;;;;;;;;;;;;;;26.51;23.09;101092.94;4977969;28;1114;-19
2022/11/29 07:41:54;;;;;;;;;;;;;;;26.40;22.62;101090.59;4976749;28;991;-19
2022/11/29 07:44:20;;;;;;;;;;;;;;;25.42;23.99;101085.69;4977473;28;1134;-19
2022/11/29 07:46:45;;;;;;;;;;;;;;;25.65;24.18;101082.41;4977223;28;1122;-19
2022/11/29 07:49:10;;;;;;;;;;;;;;;26.59;22.92;101091.25;4976754;28;1221;-19
2022/11/29 07:51:36;;;;;;;;;;;;;;;26.89;22.48;101094.22;4976695;28;1342;-19
2022/11/29 07:54:01;;;;;;;;;;;;;;;26.15;22.77;101104.03;4975546;28;1049;-19
2022/11/29 07:56:26;;;;;;;;;;;;;;;25.50;23.88;101090.25;4960425;28;1894;-19
2022/11/29 07:58:51;;;;;;;;;;;;;;;26.17;23.21;101096.63;4977033;28;1202;-19
2022/11/29 08:01:17;;;;;;;;;;;;;;;26.90;22.25;101101.28;4977108;28;934;-19
2022/11/29 08:03:42;;;;;;;;;;;;;;;27.01;22.26;101095.53;4975988;28;1331;-19
2022/11/29 08:06:07;;;;;;;;;;;;;;;25.66;23.44;101097.56;4977247;28;1173;-19
2022/11/29 08:08:32;;;;;;;;;;;;;;;25.28;24.32;101096.06;4958961;28;1193;-19
2022/11/29 08:10:58;;;;;;;;;;;;;;;26.55;22.80;101096.13;4977413;28;1111;-19
2022/11/29 08:13:23;;;;;;;;;;;;;;;26.92;22.43;101093.00;4977066;28;1194;-19
2022/11/29 08:15:48;;;;;;;;;;;;;;;26.12;23.03;101088.19;4976560;28;1890;-19
2022/11/29 08:18:14;;;;;;;;;;;;;;;25.44;24.10;101089.91;4976994;28;1256;-20
2022/11/29 08:20:40;;;;;;;;;;;;;;;25.95;23.69;101087.34;4976581;28;1090;-19
2022/11/29 08:23:05;;;;;;;;;;;;;;;26.74;22.42;101099.47;4974692;28;1848;-19
2022/11/29 08:25:31;;;;;;;;;;;;;;;26.94;22.55;101102.63;4976564;28;997;-19
2022/11/29 08:27:56;;;;;;;;;;;;;;;25.86;23.50;101098.09;4977129;28;1078;-19
2022/11/29 08:30:22;;;;;;;;;;;;;;;25.24;24.39;101104.63;4977234;28;1141;-19
2022/11/29 08:32:50;;;;;;;;;;;;;;;26.14;23.50;101097.78;4977366;28;1168;-19
2022/11/29 08:35:15;;;;;;;;;;;;;;;26.69;22.31;101102.69;4977161;28;1918;-19
2022/11/29 08:37:41;;;;;;;;;;;;;;;26.81;22.37;101105.84;4977214;28;972;-19
2022/11/29 08:40:06;;;;;;;;;;;;;;;25.95;24.02;101114.28;4977438;28;1161;-19
2022/11/29 08:42:32;;;;;;;;;;;;;;;25.90;24.04;101104.00;4976938;28;1114;-19
2022/11/29 08:44:57;;;;;;;;;;;;;;;26.85;23.03;101107.22;4975672;28;1310;-19
2022/11/29 08:47:34;;;;;;;;;;;;;;;27.10;22.71;101103.63;4959653;28;1182;-20
2022/11/29 08:50:00;;;;;;;;;;;;;;;26.39;23.78;101086.22;4969920;28;1467;-20
2022/11/29 08:55:09;;;;;;;;;;;;;;;26.59;23.78;101073.19;4976091;28;1957;-19
2022/11/29 08:57:34;;;;;;;;;;;;;;;27.09;23.14;101078.47;4977062;28;1126;-19
2022/11/29 09:00:00;;;;;;;;;;;;;;;26.98;23.30;101079.66;4976940;28;1118;-19
2022/11/29 09:02:25;;;;;;;;;;;;;;;26.21;24.29;101076.38;4976749;28;1284;-19
2022/11/29 09:04:50;;;;;;;;;;;;;;;26.39;24.28;101078.13;4977100;28;1188;-19
2022/11/29 09:07:16;;;;;;;;;;;;;;;27.09;23.47;101070.34;4977318;28;1090;-19
2022/11/29 09:09:41;;;;;;;;;;;;;;;27.31;22.83;101072.47;4976456;28;1078;-19
2022/11/29 09:12:07;;;;;;;;;;;;;;;26.43;23.65;101068.66;4976719;28;1122;-19
2022/11/29 09:14:32;;;;;;;;;;;;;;;26.16;24.38;101068.81;4976973;28;1110;-19
2022/11/29 09:16:58;;;;;;;;;;;;;;;26.86;23.53;101075.66;4976835;28;1954;-19
2022/11/29 09:19:23;;;;;;;;;;;;;;;27.19;23.24;101072.03;4978899;28;1075;-19
2022/11/29 09:21:48;;;;;;;;;;;;;;;27.32;22.88;101069.59;4979861;28;1805;-19
2022/11/29 09:24:14;;;;;;;;;;;;;;;26.50;24.03;101074.22;4980517;28;1211;-19
2022/11/29 09:26:41;;;;;;;;;;;;;;;26.26;24.47;101057.84;4980201;28;1110;-20
2022/11/29 09:29:06;;;;;;;;;;;;;;;27.09;23.59;101064.97;4980556;28;1157;-20
2022/11/29 09:31:31;;;;;;;;;;;;;;;27.36;22.99;101048.47;4964653;28;1149;-19
2022/11/29 09:33:57;;;;;;;;;;;;;;;26.90;23.52;101039.19;4980089;28;1196;-19
2022/11/29 09:36:22;;;;;;;;;;;;;;;26.43;24.20;101041.69;4979834;28;1910;-19
2022/11/29 09:38:47;;;;;;;;;;;;;;;26.84;24.03;101029.09;4980107;28;1134;-20
2022/11/29 09:41:31;;;;;;;;;;;;;;;27.31;23.21;101035.50;4980001;28;1263;-19
2022/11/29 09:43:59;;;;;;;;;;;;;;;27.37;23.02;101040.19;4962575;28;1181;-20
2022/11/29 09:46:24;;;;;;;;;;;;;;;26.51;24.16;101040.81;4980045;28;1106;-20
2022/11/29 09:49:08;;;;;;;;;;;;;;;26.34;24.41;101045.41;4979734;28;938;-20
2022/11/29 09:51:35;;;;;;;;;;;;;;;27.25;23.21;101047.00;4978175;28;2238;-20
2022/11/29 09:54:06;;;;;;;;;;;;;;;27.45;23.11;101050.09;4960607;28;1289;-20
2022/11/29 09:56:42;;;;;;;;;;;;;;;26.71;23.84;101033.19;4979539;28;1923;-20
2022/11/29 09:59:12;;;;;;;;;;;;;;;26.21;24.24;101035.13;4961837;28;1254;-19
2022/11/29 10:01:38;;;;;;;;;;;;;;;26.94;24.05;101042.41;4959860;28;1246;-19
2022/11/29 10:04:04;;;;;;;;;;;;;;;27.38;23.20;101033.78;4979402;28;1233;-19
2022/11/29 10:06:37;;;;;;;;;;;;;;;27.35;23.11;101039.53;4979250;28;1213;-19
2022/11/29 10:09:05;;;;;;;;;;;;;;;26.47;24.35;101028.69;4962641;28;1139;-20
2022/11/29 10:11:42;;;;;;;;;;;;;;;26.27;24.61;101010.16;4979518;28;1118;-20
2022/11/29 10:14:12;;;;;;;;;;;;;;;27.20;23.45;101015.13;4961970;28;1176;-20
2022/11/29 10:16:56;;;;;;;;;;;;;;;27.39;23.43;101013.84;4962268;28;1902;-20
2022/11/29 10:19:27;;;;;;;;;;;;;;;26.88;23.58;101014.22;4979733;28;1118;-20
2022/11/29 10:22:18;;;;;;;;;;;;;;;26.38;24.52;101008.97;4962052;28;2294;-19
2022/11/29 10:24:45;;;;;;;;;;;;;;;26.97;23.86;101013.19;4964640;28;1238;-19
2022/11/29 10:27:12;;;;;;;;;;;;;;;27.45;23.30;101014.13;4979433;28;1370;-19
2022/11/29 10:29:37;;;;;;;;;;;;;;;26.88;23.65;101012.38;4961998;28;1114;-19
2022/11/29 10:32:05;;;;;;;;;;;;;;;26.40;24.50;101025.84;4978719;28;1271;-20
2022/11/29 10:34:31;;;;;;;;;;;;;;;26.94;24.13;101018.94;4961843;28;1170;-20
2022/11/29 10:37:01;;;;;;;;;;;;;;;27.34;23.32;101010.81;4961671;28;1911;-19
2022/11/29 10:39:33;;;;;;;;;;;;;;;27.56;22.96;101023.72;4978829;28;1153;-19
2022/11/29 10:41:59;;;;;;;;;;;;;;;26.54;24.18;101021.63;4979272;28;1114;-19
2022/11/29 10:44:24;;;;;;;;;;;;;;;26.25;24.65;101022.97;4961712;28;1106;-19
2022/11/29 10:46:50;;;;;;;;;;;;;;;27.09;23.73;101026.34;4978636;28;1212;-20
2022/11/29 10:49:16;;;;;;;;;;;;;;;27.34;23.55;101024.31;4961391;28;1499;-20
2022/11/29 10:51:41;;;;;;;;;;;;;;;27.06;23.83;101024.81;4978840;28;2405;-19
2022/11/29 10:54:13;;;;;;;;;;;;;;;26.51;24.34;101036.28;4978423;28;1058;-19
2022/11/29 10:56:40;;;;;;;;;;;;;;;26.89;24.06;101013.22;4960457;28;1973;-19
2022/11/29 10:59:08;;;;;;;;;;;;;;;27.36;23.70;101008.78;4978138;28;1190;-19
2022/11/29 11:01:37;;;;;;;;;;;;;;;27.42;23.47;101026.16;4976991;28;1087;-20
2022/11/29 11:04:03;;;;;;;;;;;;;;;26.62;24.36;101023.44;4958336;28;2248;-19
2022/11/29 11:06:44;;;;;;;;;;;;;;;26.10;25.06;101025.50;4985543;28;1099;-19
2022/11/29 11:09:12;;;;;;;;;;;;;;;26.97;23.82;101029.41;4979114;28;1137;-20
2022/11/29 11:11:38;;;;;;;;;;;;;;;27.31;23.69;101026.56;4979259;28;1236;-20
2022/11/29 11:14:23;;;;;;;;;;;;;;;26.72;24.05;101037.59;4977988;28;1188;-20
2022/11/29 11:16:48;;;;;;;;;;;;;;;26.13;25.20;101034.09;4978017;28;1902;-19
2022/11/29 11:19:20;;;;;;;;;;;;;;;26.94;23.96;101034.28;4979014;28;1150;-19
2022/11/29 11:21:45;;;;;;;;;;;;;;;27.38;23.73;101024.81;4978851;28;1169;-20
2022/11/29 11:24:15;;;;;;;;;;;;;;;27.22;23.35;101033.88;4977916;28;1196;-20
2022/11/29 11:26:43;;;;;;;;;;;;;;;26.32;24.83;101023.97;4960991;28;1258;-19
2022/11/29 11:29:14;;;;;;;;;;;;;;;26.40;24.49;101025.84;4978809;28;1213;-19
2022/11/29 11:31:40;;;;;;;;;;;;;;;27.19;23.64;101024.28;4961353;28;1095;-20
2022/11/29 11:34:35;;;;;;;;;;;;;;;27.39;23.42;101018.41;4992405;28;1158;-19
2022/11/29 11:37:16;;;;;;;;;;;;;;;26.31;24.72;101010.66;4969196;28;1978;-20
2022/11/29 11:39:41;;;;;;;;;;;;;;;26.45;24.53;101020.78;4978409;28;1216;-19
2022/11/29 11:45:00;;;;;;;;;;;;;;;27.24;23.24;100988.63;4964502;28;992;-20
2022/11/29 11:47:26;;;;;;;;;;;;;;;26.39;24.91;101010.69;4961268;28;1166;-19
2022/11/29 11:50:01;;;;;;;;;;;;;;;26.28;24.77;101012.69;4960599;28;1099;-19
2022/11/29 11:52:27;;;;;;;;;;;;;;;27.10;24.01;101007.25;4978095;28;1157;-19
2022/11/29 11:54:53;;;;;;;;;;;;;;;27.41;23.31;101024.44;4977690;28;1165;-20
2022/11/29 11:57:19;;;;;;;;;;;;;;;26.41;24.53;101035.59;4960632;28;1907;-20
2022/11/29 11:59:51;;;;;;;;;;;;;;;26.07;25.17;101042.03;4978155;28;1125;-19
2022/11/29 12:02:26;;;;;;;;;;;;;;;26.95;24.33;101035.97;4977630;28;929;-19
2022/11/29 12:04:56;;;;;;;;;;;;;;;27.31;23.38;101049.00;4977946;28;1146;-19
2022/11/29 12:08:00;;;;;;;;;;;;;;;26.47;24.72;101042.19;4960449;28;1154;-20
2022/11/29 12:10:26;;;;;;;;;;;;;;;26.24;24.85;101034.78;4899182;29;1289;-19
2022/11/29 12:12:51;;;;;;;;;;;;;;;27.05;23.96;101046.59;4896538;29;1262;-19
2022/11/29 12:15:21;;;;;;;;;;;;;;;27.26;23.80;101040.56;4920371;29;1895;-19
2022/11/29 12:17:49;;;;;;;;;;;;;;;26.35;24.75;101041.69;4947095;28;1115;-19
2022/11/29 12:20:14;;;;;;;;;;;;;;;25.98;25.30;101028.56;4977768;28;1165;-19
2022/11/29 12:22:52;;;;;;;;;;;;;;;26.87;24.02;101028.75;4977280;28;1177;-19
2022/11/29 12:25:18;;;;;;;;;;;;;;;27.29;23.77;101025.88;4977167;28;1236;-19
2022/11/29 12:27:43;;;;;;;;;;;;;;;26.36;24.94;101022.66;4960070;28;1165;-20
2022/11/29 12:30:12;;;;;;;;;;;;;;;26.04;25.21;101016.25;4960028;28;1143;-19
2022/11/29 12:32:41;;;;;;;;;;;;;;;26.88;24.33;101025.88;4977773;28;1193;-19
2022/11/29 12:35:25;;;;;;;;;;;;;;;27.22;23.75;101015.81;4977747;28;1899;-19
2022/11/29 12:38:00;;;;;;;;;;;;;;;26.28;24.83;101023.47;4976781;28;1249;-19
2022/11/29 12:40:29;;;;;;;;;;;;;;;25.99;25.26;101022.13;4960097;28;1201;-19
2022/11/29 12:43:00;;;;;;;;;;;;;;;26.87;24.04;101028.75;4977553;28;1248;-19
2022/11/29 12:45:31;;;;;;;;;;;;;;;27.15;23.94;101031.03;4977131;28;1228;-19
2022/11/29 12:48:03;;;;;;;;;;;;;;;26.36;24.97;101029.91;4976777;28;1161;-20
2022/11/29 12:50:48;;;;;;;;;;;;;;;25.95;25.37;101036.97;4959767;28;883;-19
2022/11/29 12:53:17;;;;;;;;;;;;;;;26.87;24.21;101037.69;4977574;28;1149;-19
2022/11/29 12:55:48;;;;;;;;;;;;;;;26.87;24.19;101042.25;4981579;28;1902;-19
2022/11/29 12:58:17;;;;;;;;;;;;;;;25.99;25.56;101041.00;4980956;28;1114;-19
2022/11/29 13:00:45;;;;;;;;;;;;;;;26.33;25.18;101051.81;4963861;28;1373;-20
2022/11/29 13:03:18;;;;;;;;;;;;;;;26.96;23.96;101053.88;4981190;28;1162;-19
2022/11/29 13:05:50;;;;;;;;;;;;;;;27.17;23.94;101056.00;4981254;28;1142;-19
2022/11/29 13:08:34;;;;;;;;;;;;;;;26.09;25.27;101059.69;4980454;28;1166;-20
2022/11/29 13:10:59;;;;;;;;;;;;;;;26.36;25.09;101056.88;4967832;28;1138;-19